createdAt,value
2022-10-03T00:00:19.045Z,13.48
2022-10-03T00:05:59.055Z,8.85
2022-10-03T00:11:37.262Z,7.13
2022-10-03T00:17:12.036Z,7.60
2022-10-03T00:22:49.085Z,10.57
2022-10-03T00:28:25.147Z,9.38
2022-10-03T00:34:04.095Z,11.48
2022-10-03T00:39:57.067Z,9.13
2022-10-03T00:45:57.111Z,11.05
2022-10-03T00:51:39.357Z,11.00
2022-10-03T00:57:23.080Z,11.45
2022-10-03T01:02:59.108Z,11.38
2022-10-03T01:08:53.074Z,13.07
2022-10-03T01:14:33.080Z,11.90
2022-10-03T01:20:15.084Z,8.77
2022-10-03T01:25:50.108Z,8.18
2022-10-03T01:31:24.151Z,12.63
2022-10-03T01:36:59.138Z,11.93
2022-10-03T01:42:31.093Z,11.65
2022-10-03T01:48:03.088Z,12.48
2022-10-03T01:53:35.086Z,8.52
2022-10-03T01:59:09.198Z,8.68
2022-10-03T02:04:59.103Z,13.10
2022-10-03T02:10:35.135Z,10.40
2022-10-03T02:16:13.147Z,13.45
2022-10-03T02:21:42.221Z,14.70
2022-10-03T02:27:28.145Z,10.18
2022-10-03T02:33:34.116Z,12.35
2022-10-03T02:39:35.138Z,11.13
2022-10-03T02:45:34.266Z,9.18
2022-10-03T02:51:37.615Z,9.82
2022-10-03T02:57:36.117Z,13.60
2022-10-03T03:03:32.267Z,10.88
2022-10-03T03:09:10.171Z,7.15
2022-10-03T03:15:07.204Z,12.88
2022-10-03T03:20:53.173Z,10.75
2022-10-03T03:26:38.206Z,9.57
2022-10-03T03:32:12.185Z,10.20
2022-10-03T03:37:47.154Z,13.18
2022-10-03T03:43:41.299Z,12.95
2022-10-03T03:49:22.199Z,9.48
2022-10-03T03:55:08.180Z,11.40
2022-10-03T04:00:38.201Z,8.07
2022-10-03T04:06:26.136Z,12.65
2022-10-03T04:12:08.146Z,10.57
2022-10-03T04:23:48.166Z,13.70
2022-10-03T04:29:39.162Z,10.67
2022-10-03T04:35:20.214Z,11.07
2022-10-03T04:40:58.197Z,9.60
2022-10-03T04:46:39.203Z,9.75
2022-10-03T04:52:11.162Z,14.27
2022-10-03T04:57:46.250Z,10.60
2022-10-03T05:03:22.239Z,10.18
2022-10-03T05:09:02.327Z,12.20
2022-10-03T05:14:36.246Z,12.48
2022-10-03T05:20:18.213Z,13.13
2022-10-03T05:26:23.214Z,14.00
2022-10-03T05:32:05.310Z,10.95
2022-10-03T05:37:58.247Z,13.45
2022-10-03T05:43:45.251Z,14.70
2022-10-03T05:49:30.229Z,13.15
2022-10-03T05:55:15.237Z,14.27
2022-10-03T06:00:54.286Z,18.92
2022-10-03T06:06:35.225Z,12.48
2022-10-03T06:12:13.243Z,14.60
2022-10-03T06:18:09.254Z,17.83
2022-10-03T06:24:04.281Z,16.65
2022-10-03T06:36:04.249Z,12.65
2022-10-03T06:42:02.303Z,12.98
2022-10-03T06:47:47.232Z,13.05
2022-10-03T06:53:28.238Z,13.20
2022-10-03T06:59:26.243Z,10.67
2022-10-03T07:05:29.253Z,11.90
2022-10-03T07:11:16.266Z,9.70
2022-10-03T07:17:24.275Z,13.32
2022-10-03T07:23:20.267Z,9.43
2022-10-03T07:29:17.274Z,8.43
2022-10-03T07:35:17.324Z,10.32
2022-10-03T07:41:14.278Z,7.88
2022-10-03T07:47:05.277Z,10.75
2022-10-03T07:52:52.258Z,9.47
2022-10-03T07:58:49.254Z,14.63
2022-10-03T08:04:42.283Z,11.02
2022-10-03T08:10:28.273Z,10.88
2022-10-03T08:16:11.374Z,10.32
2022-10-03T08:21:45.289Z,9.18
2022-10-03T08:27:39.340Z,11.63
2022-10-03T08:33:19.308Z,12.40
2022-10-03T08:39:09.318Z,6.80
2022-10-03T08:44:56.444Z,6.95
2022-10-03T08:51:00.315Z,8.00
2022-10-03T08:56:30.300Z,8.43
2022-10-03T09:02:21.451Z,7.45
2022-10-03T09:08:20.325Z,7.93
2022-10-03T09:14:51.349Z,6.50
2022-10-03T09:20:43.351Z,9.90
2022-10-03T09:32:18.344Z,5.70
2022-10-03T09:44:10.339Z,9.48
2022-10-03T09:50:15.334Z,6.00
2022-10-03T09:55:59.371Z,7.78
2022-10-03T10:01:36.364Z,5.88
2022-10-03T10:07:49.584Z,3.92
2022-10-03T10:14:06.287Z,3.67
2022-10-03T10:20:00.402Z,5.18
2022-10-03T10:25:52.382Z,4.88
2022-10-03T10:32:04.382Z,4.82
2022-10-03T10:43:56.402Z,5.88
2022-10-03T10:49:53.374Z,3.83
2022-10-03T10:55:58.421Z,3.35
2022-10-03T11:01:59.403Z,4.40
2022-10-03T11:08:11.448Z,4.40
2022-10-03T11:20:13.457Z,4.45
2022-10-03T11:32:49.440Z,2.47
2022-10-03T11:38:22.419Z,3.78
2022-10-03T11:44:16.414Z,3.47
2022-10-03T11:50:04.496Z,4.20
2022-10-03T11:55:43.542Z,4.60
2022-10-03T12:01:25.405Z,4.38
2022-10-03T12:07:26.413Z,4.63
2022-10-03T12:12:55.441Z,4.70
2022-10-03T12:18:26.435Z,3.50
2022-10-03T12:24:11.424Z,5.68
2022-10-03T12:29:40.460Z,3.00
2022-10-03T12:35:40.450Z,3.22
2022-10-03T12:41:18.450Z,3.53
2022-10-03T12:46:53.449Z,4.13
2022-10-03T12:52:21.420Z,2.83
2022-10-03T12:58:00.433Z,1.90
2022-10-03T13:03:45.521Z,3.72
2022-10-03T13:09:32.545Z,3.80
2022-10-03T13:15:27.588Z,4.10
2022-10-03T13:20:56.495Z,2.67
2022-10-03T13:26:30.533Z,4.00
2022-10-03T13:32:09.443Z,5.57
2022-10-03T13:37:45.510Z,3.25
2022-10-03T13:43:12.508Z,4.80
2022-10-03T13:48:38.534Z,3.58
2022-10-03T13:54:17.525Z,5.20
2022-10-03T13:59:56.591Z,2.55
2022-10-03T14:05:46.513Z,3.35
2022-10-03T14:11:24.496Z,4.38
2022-10-03T14:16:52.501Z,3.72
2022-10-03T14:22:37.526Z,3.65
2022-10-03T14:28:17.613Z,2.55
2022-10-03T14:33:50.639Z,2.90
2022-10-03T14:39:28.503Z,3.13
2022-10-03T14:45:03.512Z,2.58
2022-10-03T14:50:33.519Z,2.63
2022-10-03T14:56:09.504Z,3.50
2022-10-03T15:01:39.710Z,3.30
2022-10-03T15:07:08.520Z,2.25
2022-10-03T15:12:36.538Z,4.90
2022-10-03T15:18:07.551Z,3.22
2022-10-03T15:23:43.548Z,2.72
2022-10-03T15:29:12.533Z,3.20
2022-10-03T15:34:45.525Z,2.35
2022-10-03T15:40:17.514Z,2.78
2022-10-03T15:45:47.607Z,2.85
2022-10-03T15:51:24.571Z,3.72
2022-10-03T15:57:15.575Z,3.50
2022-10-03T16:02:44.571Z,4.80
2022-10-03T16:08:20.561Z,4.07
2022-10-03T16:13:48.606Z,4.55
2022-10-03T16:19:36.543Z,3.45
2022-10-03T16:25:28.583Z,4.82
2022-10-03T16:30:59.610Z,4.53
2022-10-03T16:36:25.613Z,3.92
